FIN1488 ESNQ-ENTC

Flight info

Callsign FIN1488
Flight time N/A
Altitude 14000
Route RIXEM DCT MANKI
Aircraft A320/M-SDE3FGHIRWY/LB1

Departure

Time 2026-04-27 17:37
Airport Kiruna Airport (ESNQ)

Arrival

Time N/A
Airport Tromsø Airport (ENTC)
Time Latitude Longitude Altitude Speed Heading
2026-04-27 17:07 67.82509 20.33534 1455 ft 0 kts 32°
2026-04-27 17:27 67.82507 20.33530 1455 ft 2 kts 32°
2026-04-27 17:27 67.82492 20.33514 1455 ft 2 kts
2026-04-27 17:28 67.82475 20.33512 1450 ft 2 kts 350°
2026-04-27 17:28 67.82459 20.33520 1452 ft 2 kts
2026-04-27 17:28 67.82449 20.33515 1454 ft 0 kts 50°
2026-04-27 17:31 67.82464 20.33615 1455 ft 11 kts 88°
2026-04-27 17:32 67.82436 20.33779 1455 ft 9 kts 122°
2026-04-27 17:32 67.82365 20.33969 1455 ft 6 kts 189°
2026-04-27 17:32 67.82307 20.33878 1453 ft 17 kts 213°
2026-04-27 17:33 67.82195 20.33680 1452 ft 20 kts 213°
2026-04-27 17:33 67.82083 20.33483 1455 ft 19 kts 214°
2026-04-27 17:33 67.81980 20.33296 1455 ft 17 kts 213°
2026-04-27 17:33 67.81886 20.33130 1454 ft 16 kts 214°
2026-04-27 17:34 67.81799 20.32978 1455 ft 14 kts 213°
2026-04-27 17:34 67.81724 20.32844 1451 ft 13 kts 214°
2026-04-27 17:34 67.81643 20.32702 1453 ft 18 kts 213°
2026-04-27 17:34 67.81542 20.32520 1454 ft 17 kts 215°
2026-04-27 17:35 67.81450 20.32357 1455 ft 15 kts 214°
2026-04-27 17:35 67.81369 20.32209 1455 ft 13 kts 217°
2026-04-27 17:35 67.81316 20.32028 1455 ft 12 kts 225°
2026-04-27 17:35 67.81277 20.32072 1455 ft 6 kts 75°
2026-04-27 17:36 67.81310 20.32119 1455 ft 6 kts 22°
2026-04-27 17:36 67.81376 20.32228 1455 ft 29 kts 33°
2026-04-27 17:36 67.81774 20.32921 1453 ft 104 kts 34°
2026-04-27 17:36 67.82544 20.34272 1524 ft 153 kts 30°
2026-04-27 17:37 67.83422 20.35815 2202 ft 151 kts 28°
2026-04-27 17:37 67.84302 20.37355 3024 ft 155 kts 28°
2026-04-27 17:37 67.85334 20.38483 3450 ft 170 kts
2026-04-27 17:37 67.86587 20.38452 3843 ft 190 kts 356°
2026-04-27 17:38 67.87997 20.38259 4269 ft 216 kts 356°
2026-04-27 17:38 67.89572 20.38052 4876 ft 235 kts 356°
2026-04-27 17:38 67.91229 20.37868 5824 ft 241 kts 357°
2026-04-27 17:38 67.92916 20.37712 6808 ft 245 kts 358°
2026-04-27 17:39 67.94631 20.37575 7786 ft 247 kts 357°
2026-04-27 17:39 67.96360 20.37455 8759 ft 250 kts 358°
2026-04-27 17:39 67.98109 20.37339 9717 ft 253 kts 358°
2026-04-27 17:39 67.99889 20.37220 10525 ft 262 kts 358°
2026-04-27 17:40 68.01789 20.37095 10840 ft 285 kts 358°
2026-04-27 17:40 68.03829 20.36973 11377 ft 299 kts 358°
2026-04-27 17:40 68.05930 20.36852 12156 ft 304 kts 358°
2026-04-27 17:40 68.08064 20.36731 12960 ft 309 kts 358°
2026-04-27 17:41 68.10233 20.36608 13724 ft 315 kts 358°
2026-04-27 17:41 68.12440 20.36482 14458 ft 319 kts 358°
2026-04-27 17:41 68.14677 20.36354 15173 ft 323 kts 358°
2026-04-27 17:41 68.16931 20.36223 15899 ft 326 kts 358°
2026-04-27 17:42 68.19207 20.36093 16640 ft 328 kts 358°
2026-04-27 17:42 68.21500 20.35956 17383 ft 331 kts 358°
2026-04-27 17:42 68.23808 20.35815 18107 ft 333 kts 358°
2026-04-27 17:42 68.26138 20.35675 18802 ft 336 kts 358°
2026-04-27 17:43 68.28453 20.35537 19446 ft 338 kts 358°
2026-04-27 17:43 68.30814 20.35396 20051 ft 342 kts 358°
2026-04-27 17:43 68.33202 20.35254 20670 ft 344 kts 358°